createdAt,value
2018-10-07T00:00:11.938Z,19.02
2018-10-07T00:02:39.614Z,19.01
2018-10-07T00:05:07.215Z,18.99
2018-10-07T00:07:34.909Z,18.98
2018-10-07T00:10:02.479Z,18.96
2018-10-07T00:12:30.076Z,18.94
2018-10-07T00:14:57.764Z,18.93
2018-10-07T00:17:25.439Z,18.93
2018-10-07T00:19:53.050Z,18.91
2018-10-07T00:22:20.644Z,18.89
2018-10-07T00:24:48.258Z,18.89
2018-10-07T00:27:15.877Z,18.88
2018-10-07T00:29:43.574Z,18.87
2018-10-07T00:32:13.096Z,18.86
2018-10-07T00:34:40.701Z,18.84
2018-10-07T00:37:08.403Z,18.83
2018-10-07T00:39:36.081Z,18.81
2018-10-07T00:42:03.746Z,18.80
2018-10-07T00:44:31.360Z,18.79
2018-10-07T00:46:59.009Z,18.79
2018-10-07T00:49:26.724Z,18.75
2018-10-07T00:51:54.323Z,18.72
2018-10-07T00:54:21.978Z,18.71
2018-10-07T00:56:49.617Z,18.69
2018-10-07T00:59:17.227Z,18.69
2018-10-07T01:01:44.830Z,18.68
2018-10-07T01:04:12.440Z,18.64
2018-10-07T01:06:40.109Z,18.59
2018-10-07T01:09:09.203Z,18.62
2018-10-07T01:11:36.909Z,18.61
2018-10-07T01:14:04.627Z,18.59
2018-10-07T01:16:32.309Z,18.56
2018-10-07T01:18:59.999Z,18.56
2018-10-07T01:21:27.736Z,18.54
2018-10-07T01:23:55.372Z,18.52
2018-10-07T01:26:22.979Z,18.50
2018-10-07T01:28:50.620Z,18.49
2018-10-07T01:31:18.217Z,18.44
2018-10-07T01:33:45.833Z,18.47
2018-10-07T01:36:13.506Z,18.43
2018-10-07T01:38:41.164Z,18.43
2018-10-07T01:41:08.768Z,18.40
2018-10-07T01:43:36.400Z,18.39
2018-10-07T01:46:04.044Z,18.40
2018-10-07T01:48:31.673Z,18.37
2018-10-07T01:50:59.267Z,18.37
2018-10-07T01:53:26.867Z,18.36
2018-10-07T01:55:54.609Z,18.35
2018-10-07T01:58:22.204Z,18.33
2018-10-07T02:00:49.840Z,18.34
2018-10-07T02:03:17.445Z,18.31
2018-10-07T02:05:45.114Z,18.30
2018-10-07T02:08:12.816Z,18.30
2018-10-07T02:10:40.477Z,18.30
2018-10-07T02:13:08.065Z,18.28
2018-10-07T02:15:35.796Z,18.26
2018-10-07T02:18:03.404Z,18.25
2018-10-07T02:20:30.969Z,18.24
2018-10-07T02:22:58.630Z,18.19
2018-10-07T02:25:26.357Z,18.23
2018-10-07T02:27:53.952Z,18.23
2018-10-07T02:30:21.539Z,18.20
2018-10-07T02:32:49.143Z,18.21
2018-10-07T02:35:16.736Z,18.21
2018-10-07T02:37:44.400Z,18.20
2018-10-07T02:40:12.011Z,18.20
2018-10-07T02:42:39.666Z,18.19
2018-10-07T02:45:07.328Z,18.18
2018-10-07T02:47:35.013Z,18.17
2018-10-07T02:50:10.465Z,18.15
2018-10-07T02:52:43.567Z,18.14
2018-10-07T02:55:11.245Z,18.13
2018-10-07T02:57:38.887Z,18.12
2018-10-07T03:00:06.494Z,18.11
2018-10-07T03:02:34.161Z,18.12
2018-10-07T03:05:01.779Z,18.13
2018-10-07T03:07:29.412Z,18.09
2018-10-07T03:09:57.052Z,18.11
2018-10-07T03:12:24.695Z,18.10
2018-10-07T03:14:52.278Z,18.08
2018-10-07T03:17:19.868Z,18.07
2018-10-07T03:19:47.435Z,18.08
2018-10-07T03:22:15.068Z,18.06
2018-10-07T03:24:42.713Z,18.05
2018-10-07T03:27:10.486Z,18.06
2018-10-07T03:29:38.116Z,18.04
2018-10-07T03:32:05.873Z,18.04
2018-10-07T03:34:33.537Z,18.03
2018-10-07T03:37:01.109Z,18.01
2018-10-07T03:39:28.796Z,17.99
2018-10-07T03:41:56.607Z,17.99
2018-10-07T03:44:27.360Z,17.98
2018-10-07T03:46:55.408Z,17.97
2018-10-07T03:49:23.004Z,18.00
2018-10-07T03:51:50.652Z,18.01
2018-10-07T03:54:18.215Z,17.98
2018-10-07T03:56:45.861Z,17.96
2018-10-07T03:59:13.508Z,17.94
2018-10-07T04:01:41.162Z,17.94
2018-10-07T04:04:08.766Z,17.93
2018-10-07T04:06:36.451Z,17.93
2018-10-07T04:09:05.821Z,17.92
2018-10-07T04:11:33.396Z,17.89
2018-10-07T04:14:01.032Z,17.91
2018-10-07T04:16:28.642Z,17.90
2018-10-07T04:18:56.300Z,17.90
2018-10-07T04:21:23.883Z,17.87
2018-10-07T04:23:51.528Z,17.87
2018-10-07T04:26:19.218Z,17.85
2018-10-07T04:28:46.821Z,17.85
2018-10-07T04:31:14.471Z,17.85
2018-10-07T04:33:42.072Z,17.83
2018-10-07T04:36:09.733Z,17.80
2018-10-07T04:38:37.609Z,17.81
2018-10-07T04:41:05.557Z,17.81
2018-10-07T04:43:33.171Z,17.83
2018-10-07T04:46:00.842Z,17.81
2018-10-07T04:48:28.521Z,17.81
2018-10-07T04:50:56.120Z,17.78
2018-10-07T04:53:23.787Z,17.77
2018-10-07T04:55:51.386Z,17.75
2018-10-07T04:58:18.997Z,17.73
2018-10-07T05:00:46.659Z,17.74
2018-10-07T05:03:14.456Z,17.73
2018-10-07T05:05:42.079Z,17.73
2018-10-07T05:08:09.703Z,17.73
2018-10-07T05:10:46.161Z,17.69
2018-10-07T05:13:16.855Z,17.72
2018-10-07T05:15:45.372Z,17.68
2018-10-07T05:18:12.971Z,17.69
2018-10-07T05:20:40.688Z,17.70
2018-10-07T05:23:08.268Z,17.68
2018-10-07T05:25:35.927Z,17.65
2018-10-07T05:28:03.786Z,17.69
2018-10-07T05:30:31.449Z,17.66
2018-10-07T05:32:59.027Z,17.67
2018-10-07T05:35:26.831Z,17.66
2018-10-07T05:37:54.556Z,17.67
2018-10-07T05:40:22.173Z,17.66
2018-10-07T05:42:49.754Z,17.68
2018-10-07T05:45:17.353Z,17.66
2018-10-07T05:47:45.015Z,17.64
2018-10-07T05:50:12.634Z,17.69
2018-10-07T05:52:40.466Z,17.70
2018-10-07T05:55:08.202Z,17.72
2018-10-07T05:57:35.776Z,17.71
2018-10-07T06:00:03.421Z,17.70
2018-10-07T06:02:31.046Z,17.68
2018-10-07T06:04:59.157Z,17.69
2018-10-07T06:07:27.999Z,17.69
2018-10-07T06:09:55.647Z,17.70
2018-10-07T06:12:23.293Z,17.73
2018-10-07T06:15:02.406Z,17.72
2018-10-07T06:17:29.963Z,17.68
2018-10-07T06:19:57.572Z,17.73
2018-10-07T06:22:25.621Z,17.75
2018-10-07T06:24:53.207Z,17.74
2018-10-07T06:27:20.868Z,17.75
2018-10-07T06:29:48.534Z,17.74
2018-10-07T06:32:16.123Z,17.70
2018-10-07T06:34:43.732Z,17.74
2018-10-07T06:37:11.412Z,17.74
2018-10-07T06:39:39.060Z,17.72
2018-10-07T06:42:06.836Z,17.71
2018-10-07T06:44:34.452Z,17.74
2018-10-07T06:47:02.068Z,17.73
2018-10-07T06:49:29.726Z,17.75
2018-10-07T06:51:57.316Z,17.76
2018-10-07T06:54:24.892Z,17.76
2018-10-07T06:56:52.508Z,17.76
2018-10-07T06:59:20.152Z,17.78
2018-10-07T07:01:47.822Z,17.78
2018-10-07T07:04:15.525Z,17.79
2018-10-07T07:06:43.176Z,17.80
2018-10-07T07:09:11.320Z,17.80
2018-10-07T07:11:39.078Z,17.80
2018-10-07T07:14:06.657Z,17.82
2018-10-07T07:16:34.356Z,17.81
2018-10-07T07:19:01.935Z,17.83
2018-10-07T07:21:29.621Z,17.82
2018-10-07T07:23:57.240Z,17.82
2018-10-07T07:26:25.097Z,17.87
2018-10-07T07:28:52.759Z,17.87
2018-10-07T07:31:20.354Z,17.88
2018-10-07T07:33:47.996Z,17.89
2018-10-07T07:36:15.632Z,17.90
2018-10-07T07:38:43.316Z,17.89
2018-10-07T07:41:10.971Z,17.90
2018-10-07T07:43:38.990Z,17.92
2018-10-07T07:46:06.619Z,17.92
2018-10-07T07:48:34.302Z,17.93
2018-10-07T07:51:01.946Z,17.90
2018-10-07T07:53:29.592Z,17.96
2018-10-07T07:55:57.220Z,17.98
2018-10-07T07:58:24.955Z,17.99
2018-10-07T08:00:52.597Z,17.99
2018-10-07T08:03:20.197Z,17.99
2018-10-07T08:05:47.823Z,18.00
2018-10-07T08:08:15.468Z,18.00
2018-10-07T08:10:43.104Z,18.01
2018-10-07T08:13:10.708Z,18.01
2018-10-07T08:15:38.385Z,18.03
2018-10-07T08:18:06.044Z,18.04
2018-10-07T08:20:33.639Z,18.06
2018-10-07T08:23:01.307Z,18.06
2018-10-07T08:25:28.977Z,18.07
2018-10-07T08:27:56.637Z,18.08
2018-10-07T08:30:24.215Z,18.09
2018-10-07T08:32:51.832Z,18.10
2018-10-07T08:35:19.738Z,18.10
2018-10-07T08:37:47.332Z,18.12
2018-10-07T08:40:14.999Z,18.13
2018-10-07T08:42:42.639Z,18.14
2018-10-07T08:45:10.301Z,18.14
2018-10-07T08:47:37.921Z,18.14
2018-10-07T08:50:05.623Z,18.15
2018-10-07T08:52:33.203Z,18.17
2018-10-07T08:55:00.857Z,18.17
2018-10-07T08:57:28.494Z,18.18
2018-10-07T08:59:56.138Z,18.20
2018-10-07T09:02:23.819Z,18.20
2018-10-07T09:04:51.417Z,18.22
2018-10-07T09:07:19.071Z,18.22
2018-10-07T09:09:46.672Z,18.23
2018-10-07T09:12:14.266Z,18.25
2018-10-07T09:14:41.995Z,18.20
2018-10-07T09:17:09.615Z,18.25
2018-10-07T09:19:37.232Z,18.27
2018-10-07T09:22:04.875Z,18.24
2018-10-07T09:24:32.543Z,18.26
2018-10-07T09:27:00.228Z,18.29
2018-10-07T09:29:27.825Z,18.29
2018-10-07T09:31:55.495Z,18.30
2018-10-07T09:34:23.079Z,18.32
2018-10-07T09:36:50.707Z,18.33
2018-10-07T09:39:18.350Z,18.34
2018-10-07T09:41:45.944Z,18.36
2018-10-07T09:44:13.571Z,18.39
2018-10-07T09:46:41.353Z,18.40
2018-10-07T09:49:08.967Z,18.43
2018-10-07T09:51:36.638Z,18.47
2018-10-07T09:54:04.330Z,18.50
2018-10-07T09:56:31.936Z,18.52
2018-10-07T09:58:59.588Z,18.55
2018-10-07T10:01:27.225Z,18.53
2018-10-07T10:03:54.915Z,18.55
2018-10-07T10:06:22.497Z,18.53
2018-10-07T10:08:50.160Z,18.54
2018-10-07T10:11:17.879Z,18.55
2018-10-07T10:13:45.413Z,18.59
2018-10-07T10:16:13.077Z,18.61
2018-10-07T10:18:50.840Z,18.62
2018-10-07T10:21:27.995Z,18.63
2018-10-07T10:24:30.486Z,18.63
2018-10-07T10:27:05.562Z,18.65
2018-10-07T10:29:36.148Z,18.66
2018-10-07T10:32:09.837Z,18.66
2018-10-07T10:36:49.140Z,18.65
2018-10-07T10:40:26.847Z,18.62
2018-10-07T10:42:57.587Z,18.60
2018-10-07T10:45:35.009Z,18.62
2018-10-07T10:48:24.429Z,18.62
2018-10-07T10:51:10.488Z,18.63
2018-10-07T10:53:45.381Z,18.66
2018-10-07T10:56:25.622Z,18.71
2018-10-07T10:59:12.070Z,18.72
2018-10-07T11:03:54.316Z,18.76
2018-10-07T11:06:39.059Z,18.83
2018-10-07T11:10:14.622Z,18.86
2018-10-07T11:12:47.121Z,18.87
2018-10-07T11:15:26.638Z,18.89
2018-10-07T11:19:02.926Z,18.93
2018-10-07T11:21:41.931Z,18.89
2018-10-07T11:24:37.753Z,18.92
2018-10-07T11:27:09.761Z,18.91
2018-10-07T11:29:44.230Z,18.92
2018-10-07T11:32:19.413Z,18.91
2018-10-07T11:34:58.824Z,18.91
2018-10-07T11:37:37.830Z,18.93
2018-10-07T11:40:16.804Z,18.95
2018-10-07T11:43:08.510Z,18.95
2018-10-07T11:45:42.317Z,18.98
2018-10-07T11:48:49.151Z,19.03
2018-10-07T11:53:28.512Z,19.08
2018-10-07T11:55:56.189Z,19.11
2018-10-07T11:58:23.779Z,19.12
2018-10-07T12:00:51.376Z,19.12
2018-10-07T12:03:19.001Z,19.13
2018-10-07T12:05:46.644Z,19.10
2018-10-07T12:08:14.364Z,19.12
2018-10-07T12:10:41.969Z,19.18
2018-10-07T12:13:09.593Z,19.24
2018-10-07T12:15:37.241Z,19.26
2018-10-07T12:18:04.911Z,19.24
2018-10-07T12:20:32.561Z,19.27
2018-10-07T12:23:00.194Z,19.29
2018-10-07T12:25:27.824Z,19.34
2018-10-07T12:27:55.476Z,19.42
2018-10-07T12:30:23.099Z,19.43
2018-10-07T12:32:50.716Z,19.42
2018-10-07T12:35:18.299Z,19.42
2018-10-07T12:37:45.932Z,19.47
2018-10-07T12:40:13.570Z,19.58
2018-10-07T12:42:41.243Z,19.70
2018-10-07T12:45:08.916Z,19.78
2018-10-07T12:47:36.541Z,19.79
2018-10-07T12:50:04.336Z,19.73
2018-10-07T12:52:32.107Z,19.67
2018-10-07T12:54:59.743Z,19.63
2018-10-07T12:57:27.404Z,19.60
2018-10-07T12:59:55.002Z,19.60
2018-10-07T13:02:22.648Z,19.62
2018-10-07T13:04:50.248Z,19.66
2018-10-07T13:07:17.823Z,19.69
2018-10-07T13:09:45.496Z,19.74
2018-10-07T13:12:13.136Z,19.77
2018-10-07T13:14:40.786Z,19.80
2018-10-07T13:17:08.376Z,19.86
2018-10-07T13:19:36.058Z,19.95
2018-10-07T13:22:03.623Z,20.02
2018-10-07T13:24:31.241Z,20.07
2018-10-07T13:26:58.855Z,20.10
2018-10-07T13:29:26.480Z,20.12
2018-10-07T13:31:54.072Z,20.10
2018-10-07T13:34:21.748Z,20.05
2018-10-07T13:36:49.400Z,20.04
2018-10-07T13:39:16.983Z,20.05
2018-10-07T13:41:44.625Z,20.12
2018-10-07T13:44:12.195Z,20.11
2018-10-07T13:46:39.843Z,20.17
2018-10-07T13:49:07.508Z,20.26
2018-10-07T13:51:35.181Z,20.47
2018-10-07T13:54:02.832Z,20.63
2018-10-07T13:56:30.504Z,20.77
2018-10-07T13:58:58.169Z,20.79
2018-10-07T14:01:25.920Z,20.76
2018-10-07T14:03:53.551Z,20.92
2018-10-07T14:06:21.160Z,21.03
2018-10-07T14:08:48.755Z,21.19
2018-10-07T14:11:16.423Z,21.35
2018-10-07T14:13:44.014Z,21.41
2018-10-07T14:16:11.685Z,21.46
2018-10-07T14:18:39.334Z,21.47
2018-10-07T14:21:06.995Z,21.48
2018-10-07T14:23:41.451Z,21.52
2018-10-07T14:26:09.099Z,21.47
2018-10-07T14:28:36.707Z,21.43
2018-10-07T14:31:04.316Z,21.36
2018-10-07T14:33:31.920Z,21.38
2018-10-07T14:35:59.517Z,21.39
2018-10-07T14:38:27.133Z,21.39
2018-10-07T14:40:54.765Z,21.51
2018-10-07T14:43:22.372Z,21.57
2018-10-07T14:45:50.024Z,21.56
2018-10-07T14:48:17.622Z,21.57
2018-10-07T14:50:45.271Z,21.56
2018-10-07T14:53:12.965Z,21.58
2018-10-07T14:55:40.581Z,21.63
2018-10-07T14:58:08.174Z,21.66
2018-10-07T15:00:36.069Z,21.59
2018-10-07T15:03:03.737Z,21.60
2018-10-07T15:05:31.359Z,21.65
2018-10-07T15:07:58.995Z,21.64
2018-10-07T15:10:26.633Z,21.56
2018-10-07T15:12:54.296Z,21.48
2018-10-07T15:15:21.926Z,21.44
2018-10-07T15:17:49.556Z,21.45
2018-10-07T15:20:17.219Z,21.39
2018-10-07T15:22:44.868Z,21.45
2018-10-07T15:25:12.761Z,21.48
2018-10-07T15:27:40.363Z,21.38
2018-10-07T15:30:07.998Z,21.21
2018-10-07T15:32:35.672Z,21.06
2018-10-07T15:35:03.351Z,20.99
2018-10-07T15:37:31.021Z,20.97
2018-10-07T15:39:58.652Z,20.95
2018-10-07T15:42:26.253Z,20.99
2018-10-07T15:44:53.915Z,21.07
2018-10-07T15:47:21.571Z,21.00
2018-10-07T15:49:49.159Z,20.89
2018-10-07T15:52:16.909Z,20.79
2018-10-07T15:54:44.588Z,20.74
2018-10-07T15:57:12.225Z,20.71
2018-10-07T15:59:39.893Z,20.72
2018-10-07T16:02:07.562Z,20.70
2018-10-07T16:04:35.217Z,20.61
2018-10-07T16:07:02.848Z,20.56
2018-10-07T16:09:30.442Z,20.48
2018-10-07T16:11:58.023Z,20.48
2018-10-07T16:14:25.637Z,20.48
2018-10-07T16:16:53.309Z,20.43
2018-10-07T16:19:20.999Z,20.36
2018-10-07T16:21:48.628Z,20.28
2018-10-07T16:24:16.286Z,20.18
2018-10-07T16:26:43.995Z,20.11
2018-10-07T16:29:11.613Z,20.04
2018-10-07T16:31:39.246Z,19.98
2018-10-07T16:34:07.099Z,19.94
2018-10-07T16:36:34.754Z,19.88
2018-10-07T16:39:02.530Z,19.82
2018-10-07T16:41:30.137Z,19.79
2018-10-07T16:43:57.816Z,19.74
2018-10-07T16:46:25.393Z,19.70
2018-10-07T16:48:53.003Z,19.66
2018-10-07T16:51:20.629Z,19.62
2018-10-07T16:53:48.284Z,19.58
2018-10-07T16:56:15.867Z,19.54
2018-10-07T16:58:43.495Z,19.51
2018-10-07T17:01:11.114Z,19.47
2018-10-07T17:03:38.756Z,19.44
2018-10-07T17:06:06.376Z,19.42
2018-10-07T17:08:34.025Z,19.39
2018-10-07T17:11:01.668Z,19.36
2018-10-07T17:13:29.402Z,19.33
2018-10-07T17:15:56.969Z,19.29
2018-10-07T17:18:24.625Z,19.26
2018-10-07T17:20:52.269Z,19.24
2018-10-07T17:23:19.881Z,19.20
2018-10-07T17:25:47.540Z,19.19
2018-10-07T17:28:15.171Z,19.17
2018-10-07T17:30:42.789Z,19.14
2018-10-07T17:33:10.416Z,19.12
2018-10-07T17:35:38.135Z,19.10
2018-10-07T17:38:05.810Z,19.08
2018-10-07T17:40:33.408Z,19.04
2018-10-07T17:43:01.064Z,19.02
2018-10-07T17:45:28.685Z,19.00
2018-10-07T17:47:56.268Z,18.99
2018-10-07T17:50:23.884Z,18.97
2018-10-07T17:52:51.624Z,18.95
2018-10-07T17:55:19.341Z,18.93
2018-10-07T17:57:46.924Z,18.90
2018-10-07T18:00:14.685Z,18.89
2018-10-07T18:02:42.596Z,18.87
2018-10-07T18:05:10.176Z,18.86
2018-10-07T18:07:37.756Z,18.85
2018-10-07T18:10:05.364Z,18.84
2018-10-07T18:12:33.061Z,18.81
2018-10-07T18:15:00.687Z,18.81
2018-10-07T18:17:28.417Z,18.78
2018-10-07T18:19:56.055Z,18.76
2018-10-07T18:22:23.725Z,18.73
2018-10-07T18:24:51.344Z,18.72
2018-10-07T18:27:18.951Z,18.71
2018-10-07T18:29:46.620Z,18.70
2018-10-07T18:32:14.330Z,18.68
2018-10-07T18:34:42.141Z,18.67
2018-10-07T18:37:09.708Z,18.65
2018-10-07T18:39:37.357Z,18.65
2018-10-07T18:42:04.978Z,18.63
2018-10-07T18:44:32.661Z,18.61
2018-10-07T18:47:00.352Z,18.60
2018-10-07T18:49:27.991Z,18.58
2018-10-07T18:51:55.680Z,18.54
2018-10-07T18:54:23.341Z,18.55
2018-10-07T18:56:50.983Z,18.56
2018-10-07T18:59:18.929Z,18.52
2018-10-07T19:01:46.593Z,18.52
2018-10-07T19:04:14.219Z,18.49
2018-10-07T19:06:41.961Z,18.47
2018-10-07T19:09:10.757Z,18.46
2018-10-07T19:11:38.397Z,18.45
2018-10-07T19:14:06.093Z,18.44
2018-10-07T19:16:33.802Z,18.43
2018-10-07T19:19:01.465Z,18.42
2018-10-07T19:21:29.195Z,18.40
2018-10-07T19:23:56.879Z,18.38
2018-10-07T19:26:24.479Z,18.39
2018-10-07T19:28:52.173Z,18.38
2018-10-07T19:31:19.821Z,18.34
2018-10-07T19:33:47.509Z,18.34
2018-10-07T19:36:15.149Z,18.33
2018-10-07T19:38:42.798Z,18.29
2018-10-07T19:41:11.352Z,18.30
2018-10-07T19:43:38.980Z,18.31
2018-10-07T19:46:06.584Z,18.29
2018-10-07T19:48:34.290Z,18.26
2018-10-07T19:51:01.974Z,18.30
2018-10-07T19:53:29.693Z,18.26
2018-10-07T19:55:57.489Z,18.26
2018-10-07T19:58:25.241Z,18.26
2018-10-07T20:00:53.029Z,18.23
2018-10-07T20:03:20.652Z,18.24
2018-10-07T20:05:48.325Z,18.24
2018-10-07T20:08:15.993Z,18.19
2018-10-07T20:10:43.645Z,18.18
2018-10-07T20:13:11.367Z,18.20
2018-10-07T20:15:38.997Z,18.18
2018-10-07T20:18:06.690Z,18.19
2018-10-07T20:20:34.370Z,18.14
2018-10-07T20:23:02.020Z,18.16
2018-10-07T20:25:29.661Z,18.13
2018-10-07T20:27:57.346Z,18.13
2018-10-07T20:30:24.937Z,18.13
2018-10-07T20:32:52.552Z,18.12
2018-10-07T20:35:20.239Z,18.10
2018-10-07T20:37:47.954Z,18.07
2018-10-07T20:40:15.662Z,18.10
2018-10-07T20:42:43.311Z,18.09
2018-10-07T20:45:10.945Z,18.05
2018-10-07T20:47:38.593Z,18.07
2018-10-07T20:50:06.289Z,18.04
2018-10-07T20:52:33.991Z,18.06
2018-10-07T20:55:01.635Z,18.04
2018-10-07T20:57:29.310Z,18.04
2018-10-07T20:59:56.979Z,18.03
2018-10-07T21:02:24.687Z,18.02
2018-10-07T21:04:52.353Z,17.99
2018-10-07T21:07:20.014Z,17.96
2018-10-07T21:09:47.658Z,17.92
2018-10-07T21:12:15.261Z,17.96
2018-10-07T21:14:42.972Z,17.95
2018-10-07T21:17:10.762Z,17.95
2018-10-07T21:19:38.327Z,17.94
2018-10-07T21:22:05.955Z,17.93
2018-10-07T21:24:33.640Z,17.93
2018-10-07T21:27:01.251Z,17.92
2018-10-07T21:29:29.003Z,17.91
2018-10-07T21:31:56.656Z,17.90
2018-10-07T21:34:24.335Z,17.93
2018-10-07T21:36:52.009Z,17.91
2018-10-07T21:39:19.625Z,17.92
2018-10-07T21:41:47.608Z,17.90
2018-10-07T21:44:15.132Z,17.88
2018-10-07T21:46:42.814Z,17.87
2018-10-07T21:49:10.503Z,17.88
2018-10-07T21:51:38.150Z,17.89
2018-10-07T21:54:05.781Z,17.87
2018-10-07T21:56:33.470Z,17.84
2018-10-07T21:59:01.087Z,17.84
2018-10-07T22:01:29.215Z,17.83
2018-10-07T22:03:56.876Z,17.81
2018-10-07T22:06:24.533Z,17.81
2018-10-07T22:08:52.157Z,17.81
2018-10-07T22:11:19.793Z,17.80
2018-10-07T22:13:47.547Z,17.79
2018-10-07T22:16:15.200Z,17.77
2018-10-07T22:18:42.828Z,17.79
2018-10-07T22:21:10.687Z,17.73
2018-10-07T22:23:38.384Z,17.75
2018-10-07T22:26:06.122Z,17.76
2018-10-07T22:28:33.728Z,17.74
2018-10-07T22:31:01.383Z,17.74
2018-10-07T22:33:29.093Z,17.71
2018-10-07T22:35:56.700Z,17.72
2018-10-07T22:38:24.338Z,17.71
2018-10-07T22:40:51.997Z,17.69
2018-10-07T22:43:19.691Z,17.72
2018-10-07T22:45:47.286Z,17.70
2018-10-07T22:48:14.908Z,17.70
2018-10-07T22:50:42.595Z,17.67
2018-10-07T22:53:10.265Z,17.65
2018-10-07T22:55:37.992Z,17.63
2018-10-07T22:58:06.269Z,17.62
2018-10-07T23:00:34.036Z,17.62
2018-10-07T23:03:01.661Z,17.63
2018-10-07T23:05:29.362Z,17.60
2018-10-07T23:07:57.003Z,17.60
2018-10-07T23:10:24.670Z,17.58
2018-10-07T23:12:52.352Z,17.58
2018-10-07T23:15:19.992Z,17.59
2018-10-07T23:17:50.970Z,17.59
2018-10-07T23:20:18.592Z,17.59
2018-10-07T23:22:46.221Z,17.55
2018-10-07T23:25:13.976Z,17.56
2018-10-07T23:27:41.599Z,17.53
2018-10-07T23:30:09.253Z,17.53
2018-10-07T23:32:36.981Z,17.51
2018-10-07T23:35:04.623Z,17.51
2018-10-07T23:37:32.265Z,17.50
2018-10-07T23:39:59.949Z,17.50
2018-10-07T23:42:27.671Z,17.50
2018-10-07T23:44:55.324Z,17.49
2018-10-07T23:47:23.073Z,17.47
2018-10-07T23:49:50.667Z,17.44
2018-10-07T23:52:18.339Z,17.41
2018-10-07T23:54:45.925Z,17.45
2018-10-07T23:57:13.633Z,17.46
2018-10-07T23:59:41.273Z,17.45
